sensor_id;sensor_type;location;lat;lon;timestamp;pressure;altitude;pressure_sealevel;temperature;humidity
29909;BME280;36247;51.952;6.146;2023-12-20T00:01:50;101393.75;;;5.58;100.00
29909;BME280;36247;51.952;6.146;2023-12-20T00:04:15;101401.63;;;5.58;100.00
29909;BME280;36247;51.952;6.146;2023-12-20T00:06:41;101402.59;;;5.60;100.00
29909;BME280;36247;51.952;6.146;2023-12-20T00:09:06;101397.00;;;5.53;100.00
29909;BME280;36247;51.952;6.146;2023-12-20T00:11:32;101393.38;;;5.51;100.00
29909;BME280;36247;51.952;6.146;2023-12-20T00:13:58;101384.41;;;5.45;100.00
29909;BME280;36247;51.952;6.146;2023-12-20T00:16:23;101390.50;;;5.44;100.00
29909;BME280;36247;51.952;6.146;2023-12-20T00:18:49;101379.03;;;5.42;100.00
29909;BME280;36247;51.952;6.146;2023-12-20T00:21:14;101378.91;;;5.39;100.00
29909;BME280;36247;51.952;6.146;2023-12-20T00:23:40;101387.59;;;5.38;100.00
29909;BME280;36247;51.952;6.146;2023-12-20T00:26:05;101393.63;;;5.36;100.00
29909;BME280;36247;51.952;6.146;2023-12-20T00:28:30;101393.81;;;5.40;100.00
29909;BME280;36247;51.952;6.146;2023-12-20T00:30:58;101388.44;;;5.37;100.00
29909;BME280;36247;51.952;6.146;2023-12-20T00:33:24;101389.28;;;5.36;100.00
29909;BME280;36247;51.952;6.146;2023-12-20T00:35:50;101379.66;;;5.37;100.00
29909;BME280;36247;51.952;6.146;2023-12-20T00:38:16;101389.34;;;5.38;100.00
29909;BME280;36247;51.952;6.146;2023-12-20T00:40:41;101388.63;;;5.42;100.00
29909;BME280;36247;51.952;6.146;2023-12-20T00:43:07;101388.63;;;5.42;100.00
29909;BME280;36247;51.952;6.146;2023-12-20T00:45:32;101388.72;;;5.43;100.00
29909;BME280;36247;51.952;6.146;2023-12-20T00:47:58;101379.91;;;5.43;100.00
29909;BME280;36247;51.952;6.146;2023-12-20T00:50:24;101392.88;;;5.38;100.00
29909;BME280;36247;51.952;6.146;2023-12-20T00:52:50;101396.31;;;5.37;100.00
29909;BME280;36247;51.952;6.146;2023-12-20T00:55:15;101389.16;;;5.33;100.00
29909;BME280;36247;51.952;6.146;2023-12-20T00:57:41;101385.53;;;5.31;100.00
29909;BME280;36247;51.952;6.146;2023-12-20T01:00:07;101394.13;;;5.27;100.00
29909;BME280;36247;51.952;6.146;2023-12-20T01:02:35;101396.66;;;5.25;100.00
29909;BME280;36247;51.952;6.146;2023-12-20T01:05:02;101392.19;;;5.23;100.00
29909;BME280;36247;51.952;6.146;2023-12-20T01:07:29;101383.47;;;5.24;100.00
29909;BME280;36247;51.952;6.146;2023-12-20T01:09:55;101393.97;;;5.24;100.00
29909;BME280;36247;51.952;6.146;2023-12-20T01:12:21;101400.16;;;5.24;100.00
29909;BME280;36247;51.952;6.146;2023-12-20T01:14:47;101393.97;;;5.24;100.00
29909;BME280;36247;51.952;6.146;2023-12-20T01:17:13;101393.97;;;5.24;100.00
29909;BME280;36247;51.952;6.146;2023-12-20T01:19:39;101394.69;;;5.20;100.00
29909;BME280;36247;51.952;6.146;2023-12-20T01:22:05;101392.81;;;5.17;100.00
29909;BME280;36247;51.952;6.146;2023-12-20T01:24:31;101387.56;;;5.17;100.00
29909;BME280;36247;51.952;6.146;2023-12-20T01:26:57;101388.19;;;5.11;100.00
29909;BME280;36247;51.952;6.146;2023-12-20T01:29:23;101390.88;;;5.13;100.00
29909;BME280;36247;51.952;6.146;2023-12-20T01:31:49;101391.63;;;5.10;100.00
29909;BME280;36247;51.952;6.146;2023-12-20T01:34:15;101400.34;;;5.09;100.00
29909;BME280;36247;51.952;6.146;2023-12-20T01:36:41;101390.53;;;5.05;100.00
29909;BME280;36247;51.952;6.146;2023-12-20T01:39:06;101392.34;;;5.06;100.00
29909;BME280;36247;51.952;6.146;2023-12-20T01:41:32;101398.41;;;5.05;100.00
29909;BME280;36247;51.952;6.146;2023-12-20T01:43:57;101394.97;;;5.06;100.00
29909;BME280;36247;51.952;6.146;2023-12-20T01:46:24;101395.94;;;5.08;100.00
29909;BME280;36247;51.952;6.146;2023-12-20T01:48:49;101396.59;;;5.04;100.00
29909;BME280;36247;51.952;6.146;2023-12-20T01:51:18;101397.47;;;5.03;100.00
29909;BME280;36247;51.952;6.146;2023-12-20T01:53:45;101404.47;;;5.04;100.00
29909;BME280;36247;51.952;6.146;2023-12-20T01:56:13;101398.28;;;5.02;100.00
29909;BME280;36247;51.952;6.146;2023-12-20T01:58:44;101397.38;;;5.02;100.00
29909;BME280;36247;51.952;6.146;2023-12-20T02:01:10;101398.34;;;5.04;100.00
29909;BME280;36247;51.952;6.146;2023-12-20T02:03:35;101395.78;;;5.05;100.00
29909;BME280;36247;51.952;6.146;2023-12-20T02:06:04;101388.94;;;5.09;100.00
29909;BME280;36247;51.952;6.146;2023-12-20T02:08:31;101388.94;;;5.09;100.00
29909;BME280;36247;51.952;6.146;2023-12-20T02:10:57;101381.22;;;5.12;100.00
29909;BME280;36247;51.952;6.146;2023-12-20T02:13:23;101396.06;;;5.11;100.00
29909;BME280;36247;51.952;6.146;2023-12-20T02:15:49;101407.56;;;5.14;100.00
29909;BME280;36247;51.952;6.146;2023-12-20T02:18:14;101389.44;;;5.20;100.00
29909;BME280;36247;51.952;6.146;2023-12-20T02:20:42;101394.03;;;5.25;100.00
29909;BME280;36247;51.952;6.146;2023-12-20T02:23:07;101402.09;;;5.28;100.00
29909;BME280;36247;51.952;6.146;2023-12-20T02:25:33;101398.41;;;5.25;100.00
29909;BME280;36247;51.952;6.146;2023-12-20T02:27:58;101385.69;;;5.15;100.00
29909;BME280;36247;51.952;6.146;2023-12-20T02:30:24;101399.44;;;5.09;100.00
29909;BME280;36247;51.952;6.146;2023-12-20T02:32:50;101390.81;;;5.11;100.00
29909;BME280;36247;51.952;6.146;2023-12-20T02:35:16;101384.59;;;5.09;100.00
29909;BME280;36247;51.952;6.146;2023-12-20T02:37:42;101394.97;;;5.06;100.00
29909;BME280;36247;51.952;6.146;2023-12-20T02:40:08;101389.59;;;5.03;100.00
29909;BME280;36247;51.952;6.146;2023-12-20T02:42:33;101391.94;;;4.97;100.00
29909;BME280;36247;51.952;6.146;2023-12-20T02:44:59;101384.94;;;4.98;100.00
29909;BME280;36247;51.952;6.146;2023-12-20T02:47:24;101377.81;;;4.95;100.00
29909;BME280;36247;51.952;6.146;2023-12-20T02:49:53;101388.66;;;5.03;100.00
29909;BME280;36247;51.952;6.146;2023-12-20T02:52:19;101383.53;;;5.06;100.00
29909;BME280;36247;51.952;6.146;2023-12-20T02:54:44;101376.78;;;5.11;100.00
29909;BME280;36247;51.952;6.146;2023-12-20T02:57:10;101370.63;;;5.10;100.00
29909;BME280;36247;51.952;6.146;2023-12-20T02:59:35;101374.03;;;5.08;100.00
29909;BME280;36247;51.952;6.146;2023-12-20T03:02:01;101368.84;;;5.09;100.00
29909;BME280;36247;51.952;6.146;2023-12-20T03:04:30;101368.09;;;5.12;100.00
29909;BME280;36247;51.952;6.146;2023-12-20T03:06:58;101368.16;;;5.14;100.00
29909;BME280;36247;51.952;6.146;2023-12-20T03:09:24;101355.03;;;5.14;100.00
29909;BME280;36247;51.952;6.146;2023-12-20T03:11:49;101350.03;;;5.20;100.00
29909;BME280;36247;51.952;6.146;2023-12-20T03:14:15;101358.13;;;5.24;100.00
29909;BME280;36247;51.952;6.146;2023-12-20T03:16:40;101355.69;;;5.29;100.00
29909;BME280;36247;51.952;6.146;2023-12-20T03:19:06;101343.44;;;5.29;100.00
29909;BME280;36247;51.952;6.146;2023-12-20T03:21:32;101354.06;;;5.33;100.00
29909;BME280;36247;51.952;6.146;2023-12-20T03:23:58;101347.13;;;5.33;100.00
29909;BME280;36247;51.952;6.146;2023-12-20T03:26:23;101348.81;;;5.33;100.00
29909;BME280;36247;51.952;6.146;2023-12-20T03:28:49;101350.69;;;5.35;100.00
29909;BME280;36247;51.952;6.146;2023-12-20T03:31:14;101346.19;;;5.33;100.00
29909;BME280;36247;51.952;6.146;2023-12-20T03:33:39;101340.81;;;5.29;100.00
29909;BME280;36247;51.952;6.146;2023-12-20T03:36:05;101345.19;;;5.29;100.00
29909;BME280;36247;51.952;6.146;2023-12-20T03:38:37;101341.59;;;5.27;100.00
29909;BME280;36247;51.952;6.146;2023-12-20T03:41:04;101327.53;;;5.26;100.00
29909;BME280;36247;51.952;6.146;2023-12-20T03:43:31;101330.94;;;5.24;100.00
29909;BME280;36247;51.952;6.146;2023-12-20T03:46:00;101328.28;;;5.24;100.00
29909;BME280;36247;51.952;6.146;2023-12-20T03:48:26;101331.78;;;5.23;100.00
29909;BME280;36247;51.952;6.146;2023-12-20T03:50:51;101331.59;;;5.18;100.00
29909;BME280;36247;51.952;6.146;2023-12-20T03:53:17;101322.09;;;5.22;100.00
29909;BME280;36247;51.952;6.146;2023-12-20T03:55:43;101326.66;;;5.26;100.00
29909;BME280;36247;51.952;6.146;2023-12-20T03:58:09;101324.59;;;5.19;100.00
29909;BME280;36247;51.952;6.146;2023-12-20T04:00:35;101320.22;;;5.19;100.00
29909;BME280;36247;51.952;6.146;2023-12-20T04:03:02;101322.66;;;5.15;100.00
29909;BME280;36247;51.952;6.146;2023-12-20T04:05:29;101338.53;;;5.18;100.00
29909;BME280;36247;51.952;6.146;2023-12-20T04:07:54;101335.66;;;5.11;100.00
29909;BME280;36247;51.952;6.146;2023-12-20T04:10:20;101333.09;;;5.13;100.00
29909;BME280;36247;51.952;6.146;2023-12-20T04:12:45;101333.03;;;5.11;100.00
29909;BME280;36247;51.952;6.146;2023-12-20T04:15:14;101327.22;;;5.19;100.00
29909;BME280;36247;51.952;6.146;2023-12-20T04:17:39;101334.91;;;5.14;100.00
29909;BME280;36247;51.952;6.146;2023-12-20T04:20:06;101321.34;;;5.24;100.00
29909;BME280;36247;51.952;6.146;2023-12-20T04:22:35;101324.34;;;5.34;100.00
29909;BME280;36247;51.952;6.146;2023-12-20T04:25:01;101339.34;;;5.36;100.00
29909;BME280;36247;51.952;6.146;2023-12-20T04:27:28;101333.25;;;5.37;100.00
29909;BME280;36247;51.952;6.146;2023-12-20T04:29:53;101332.69;;;5.44;100.00
29909;BME280;36247;51.952;6.146;2023-12-20T04:32:18;101338.25;;;5.52;100.00
29909;BME280;36247;51.952;6.146;2023-12-20T04:34:44;101327.00;;;5.55;100.00
29909;BME280;36247;51.952;6.146;2023-12-20T04:37:10;101321.59;;;5.52;100.00
29909;BME280;36247;51.952;6.146;2023-12-20T04:39:35;101322.31;;;5.47;100.00
29909;BME280;36247;51.952;6.146;2023-12-20T04:42:01;101334.50;;;5.45;100.00
29909;BME280;36247;51.952;6.146;2023-12-20T04:44:27;101332.56;;;5.41;100.00
29909;BME280;36247;51.952;6.146;2023-12-20T04:46:53;101330.06;;;5.44;100.00
29909;BME280;36247;51.952;6.146;2023-12-20T04:49:19;101331.72;;;5.42;100.00
29909;BME280;36247;51.952;6.146;2023-12-20T04:51:44;101331.16;;;5.50;100.00
29909;BME280;36247;51.952;6.146;2023-12-20T04:54:10;101322.25;;;5.46;100.00
29909;BME280;36247;51.952;6.146;2023-12-20T04:56:36;101322.56;;;5.54;100.00
29909;BME280;36247;51.952;6.146;2023-12-20T04:59:05;101318.03;;;5.50;100.00
29909;BME280;36247;51.952;6.146;2023-12-20T05:01:41;101328.28;;;5.43;100.00
29909;BME280;36247;51.952;6.146;2023-12-20T05:04:06;101325.72;;;5.45;100.00
29909;BME280;36247;51.952;6.146;2023-12-20T05:06:33;101328.59;;;5.51;100.00
29909;BME280;36247;51.952;6.146;2023-12-20T05:08:59;101322.56;;;5.54;100.00
29909;BME280;36247;51.952;6.146;2023-12-20T05:11:24;101312.09;;;5.55;100.00
29909;BME280;36247;51.952;6.146;2023-12-20T05:13:49;101313.16;;;5.59;100.00
29909;BME280;36247;51.952;6.146;2023-12-20T05:16:15;101321.16;;;5.62;100.00
29909;BME280;36247;51.952;6.146;2023-12-20T05:18:43;101315.03;;;5.61;100.00
29909;BME280;36247;51.952;6.146;2023-12-20T05:21:09;101296.63;;;5.61;100.00
29909;BME280;36247;51.952;6.146;2023-12-20T05:23:35;101297.31;;;5.57;100.00
29909;BME280;36247;51.952;6.146;2023-12-20T05:26:01;101303.34;;;5.55;100.00
29909;BME280;36247;51.952;6.146;2023-12-20T05:28:27;101290.19;;;5.55;100.00
29909;BME280;36247;51.952;6.146;2023-12-20T05:30:54;101296.28;;;5.54;100.00
29909;BME280;36247;51.952;6.146;2023-12-20T05:33:19;101294.50;;;5.53;100.00
29909;BME280;36247;51.952;6.146;2023-12-20T05:35:45;101292.00;;;5.56;100.00
29909;BME280;36247;51.952;6.146;2023-12-20T05:38:13;101292.88;;;5.56;100.00
29909;BME280;36247;51.952;6.146;2023-12-20T05:40:39;101295.50;;;5.56;100.00
29909;BME280;36247;51.952;6.146;2023-12-20T05:43:05;101302.75;;;5.62;100.00
29909;BME280;36247;51.952;6.146;2023-12-20T05:45:31;101303.78;;;5.65;100.00
29909;BME280;36247;51.952;6.146;2023-12-20T05:47:58;101303.72;;;5.64;100.00
29909;BME280;36247;51.952;6.146;2023-12-20T05:50:24;101303.91;;;5.69;100.00
29909;BME280;36247;51.952;6.146;2023-12-20T05:52:49;101300.56;;;5.73;100.00
29909;BME280;36247;51.952;6.146;2023-12-20T05:55:15;101308.56;;;5.76;100.00
29909;BME280;36247;51.952;6.146;2023-12-20T05:57:41;101306.00;;;5.77;100.00
29909;BME280;36247;51.952;6.146;2023-12-20T06:00:09;101300.13;;;5.83;100.00
29909;BME280;36247;51.952;6.146;2023-12-20T06:02:41;101300.22;;;5.86;100.00
29909;BME280;36247;51.952;6.146;2023-12-20T06:05:06;101305.50;;;5.86;100.00
29909;BME280;36247;51.952;6.146;2023-12-20T06:07:32;101312.69;;;5.90;100.00
29909;BME280;36247;51.952;6.146;2023-12-20T06:09:58;101310.09;;;5.92;100.00
29909;BME280;36247;51.952;6.146;2023-12-20T06:12:24;101325.53;;;6.04;100.00
29909;BME280;36247;51.952;6.146;2023-12-20T06:14:49;101318.56;;;6.06;100.00
29909;BME280;36247;51.952;6.146;2023-12-20T06:17:15;101304.84;;;6.13;100.00
29909;BME280;36247;51.952;6.146;2023-12-20T06:19:40;101304.06;;;6.15;100.00
29909;BME280;36247;51.952;6.146;2023-12-20T06:22:07;101314.72;;;6.18;100.00
29909;BME280;36247;51.952;6.146;2023-12-20T06:24:33;101313.09;;;6.22;100.00
29909;BME280;36247;51.952;6.146;2023-12-20T06:26:59;101301.03;;;6.27;100.00
29909;BME280;36247;51.952;6.146;2023-12-20T06:29:25;101310.50;;;6.24;100.00
29909;BME280;36247;51.952;6.146;2023-12-20T06:31:51;101296.63;;;6.28;100.00
29909;BME280;36247;51.952;6.146;2023-12-20T06:34:16;101295.69;;;6.26;100.00
29909;BME280;36247;51.952;6.146;2023-12-20T06:36:42;101291.38;;;6.28;100.00
29909;BME280;36247;51.952;6.146;2023-12-20T06:39:07;101291.50;;;6.31;100.00
29909;BME280;36247;51.952;6.146;2023-12-20T06:41:34;101291.50;;;6.31;100.00
29909;BME280;36247;51.952;6.146;2023-12-20T06:43:59;101297.53;;;6.28;100.00
29909;BME280;36247;51.952;6.146;2023-12-20T06:46:24;101286.34;;;6.34;100.00
29909;BME280;36247;51.952;6.146;2023-12-20T06:48:50;101293.19;;;6.29;100.00
29909;BME280;36247;51.952;6.146;2023-12-20T06:51:16;101293.94;;;6.26;100.00
29909;BME280;36247;51.952;6.146;2023-12-20T06:53:42;101293.19;;;6.29;100.00
29909;BME280;36247;51.952;6.146;2023-12-20T06:56:09;101292.22;;;6.27;100.00
29909;BME280;36247;51.952;6.146;2023-12-20T06:58:35;101294.84;;;6.27;100.00
29909;BME280;36247;51.952;6.146;2023-12-20T07:01:04;101307.16;;;6.28;100.00
29909;BME280;36247;51.952;6.146;2023-12-20T07:03:31;101293.06;;;6.26;100.00
29909;BME280;36247;51.952;6.146;2023-12-20T07:06:07;101291.97;;;6.21;100.00
29909;BME280;36247;51.952;6.146;2023-12-20T07:08:33;101284.69;;;6.13;100.00
29909;BME280;36247;51.952;6.146;2023-12-20T07:10:58;101284.69;;;6.13;100.00
29909;BME280;36247;51.952;6.146;2023-12-20T07:13:24;101285.47;;;6.11;100.00
29909;BME280;36247;51.952;6.146;2023-12-20T07:15:50;101281.94;;;6.10;100.00
29909;BME280;36247;51.952;6.146;2023-12-20T07:18:15;101293.38;;;6.11;100.00
29909;BME280;36247;51.952;6.146;2023-12-20T07:20:41;101280.16;;;6.09;100.00
29909;BME280;36247;51.952;6.146;2023-12-20T07:23:06;101287.25;;;6.12;100.00
29909;BME280;36247;51.952;6.146;2023-12-20T07:25:33;101294.38;;;6.14;100.00
29909;BME280;36247;51.952;6.146;2023-12-20T07:27:58;101282.91;;;6.12;100.00
29909;BME280;36247;51.952;6.146;2023-12-20T07:30:24;101280.28;;;6.12;100.00
29909;BME280;36247;51.952;6.146;2023-12-20T07:32:49;101297.72;;;6.10;100.00
29909;BME280;36247;51.952;6.146;2023-12-20T07:35:15;101287.31;;;6.13;100.00
29909;BME280;36247;51.952;6.146;2023-12-20T07:37:41;101281.88;;;6.09;100.00
29909;BME280;36247;51.952;6.146;2023-12-20T07:40:07;101288.16;;;6.12;100.00
29909;BME280;36247;51.952;6.146;2023-12-20T07:42:33;101292.50;;;6.12;100.00
29909;BME280;36247;51.952;6.146;2023-12-20T07:44:59;101293.38;;;6.11;100.00
29909;BME280;36247;51.952;6.146;2023-12-20T07:47:24;101288.16;;;6.12;100.00
29909;BME280;36247;51.952;6.146;2023-12-20T07:49:51;101287.31;;;6.13;100.00
29909;BME280;36247;51.952;6.146;2023-12-20T07:52:19;101295.25;;;6.15;100.00
29909;BME280;36247;51.952;6.146;2023-12-20T07:54:45;101292.63;;;6.15;100.00
29909;BME280;36247;51.952;6.146;2023-12-20T07:57:11;101287.41;;;6.16;100.00
29909;BME280;36247;51.952;6.146;2023-12-20T07:59:37;101286.66;;;6.19;100.00
29909;BME280;36247;51.952;6.146;2023-12-20T08:02:04;101286.59;;;6.17;100.00
29909;BME280;36247;51.952;6.146;2023-12-20T08:04:34;101298.88;;;6.17;100.00
29909;BME280;36247;51.952;6.146;2023-12-20T08:07:00;101295.47;;;6.20;100.00
29909;BME280;36247;51.952;6.146;2023-12-20T08:09:26;101300.78;;;6.21;100.00
29909;BME280;36247;51.952;6.146;2023-12-20T08:11:52;101306.16;;;6.24;100.00
29909;BME280;36247;51.952;6.146;2023-12-20T08:14:17;101314.00;;;6.23;100.00
29909;BME280;36247;51.952;6.146;2023-12-20T08:16:43;101310.50;;;6.24;100.00
29909;BME280;36247;51.952;6.146;2023-12-20T08:19:08;101301.91;;;6.28;100.00
29909;BME280;36247;51.952;6.146;2023-12-20T08:21:34;101304.59;;;6.29;100.00
29909;BME280;36247;51.952;6.146;2023-12-20T08:23:59;101307.41;;;6.34;100.00
29909;BME280;36247;51.952;6.146;2023-12-20T08:26:26;101305.63;;;6.33;100.00
29909;BME280;36247;51.952;6.146;2023-12-20T08:28:52;101310.09;;;6.35;100.00
29909;BME280;36247;51.952;6.146;2023-12-20T08:31:18;101297.84;;;6.36;100.00
29909;BME280;36247;51.952;6.146;2023-12-20T08:33:44;101301.44;;;6.38;100.00
29909;BME280;36247;51.952;6.146;2023-12-20T08:36:11;101303.34;;;6.42;100.00
29909;BME280;36247;51.952;6.146;2023-12-20T08:38:36;101290.91;;;6.38;100.00
29909;BME280;36247;51.952;6.146;2023-12-20T08:41:06;101293.53;;;6.38;100.00
29909;BME280;36247;51.952;6.146;2023-12-20T08:43:34;101289.31;;;6.43;100.00
29909;BME280;36247;51.952;6.146;2023-12-20T08:46:02;101293.09;;;6.50;100.00
29909;BME280;36247;51.952;6.146;2023-12-20T08:48:29;101293.03;;;6.48;100.00
29909;BME280;36247;51.952;6.146;2023-12-20T08:50:54;101288.66;;;6.49;100.00
29909;BME280;36247;51.952;6.146;2023-12-20T08:53:20;101281.69;;;6.49;100.00
29909;BME280;36247;51.952;6.146;2023-12-20T08:55:45;101277.41;;;6.53;100.00
29909;BME280;36247;51.952;6.146;2023-12-20T08:58:11;101273.84;;;6.51;100.00
29909;BME280;36247;51.952;6.146;2023-12-20T09:00:36;101271.16;;;6.49;100.00
29909;BME280;36247;51.952;6.146;2023-12-20T09:03:03;101278.03;;;6.46;100.00
29909;BME280;36247;51.952;6.146;2023-12-20T09:05:30;101271.81;;;6.44;100.00
29909;BME280;36247;51.952;6.146;2023-12-20T09:07:56;101272.53;;;6.40;100.00
29909;BME280;36247;51.952;6.146;2023-12-20T09:10:22;101285.34;;;6.30;100.00
29909;BME280;36247;51.952;6.146;2023-12-20T09:12:52;101284.31;;;6.27;100.00
29909;BME280;36247;51.952;6.146;2023-12-20T09:15:25;101280.63;;;6.22;100.00
29909;BME280;36247;51.952;6.146;2023-12-20T09:17:51;101282.72;;;6.08;100.00
29909;BME280;36247;51.952;6.146;2023-12-20T09:20:16;101283.59;;;6.08;100.00
29909;BME280;36247;51.952;6.146;2023-12-20T09:22:42;101282.59;;;6.05;100.00
29909;BME280;36247;51.952;6.146;2023-12-20T09:25:09;101279.81;;;6.02;100.00
29909;BME280;36247;51.952;6.146;2023-12-20T09:27:35;101282.66;;;6.06;100.00
29909;BME280;36247;51.952;6.146;2023-12-20T09:30:02;101277.06;;;5.98;100.00
29909;BME280;36247;51.952;6.146;2023-12-20T09:32:29;101277.28;;;6.03;100.00
29909;BME280;36247;51.952;6.146;2023-12-20T09:34:55;101284.16;;;5.99;100.00
29909;BME280;36247;51.952;6.146;2023-12-20T09:37:21;101282.19;;;5.95;100.00
29909;BME280;36247;51.952;6.146;2023-12-20T09:39:48;101288.31;;;5.94;100.00
29909;BME280;36247;51.952;6.146;2023-12-20T09:42:17;101281.44;;;5.98;100.00
29909;BME280;36247;51.952;6.146;2023-12-20T09:44:47;101284.63;;;5.91;100.00
29909;BME280;36247;51.952;6.146;2023-12-20T09:47:15;101272.41;;;5.91;100.00
29909;BME280;36247;51.952;6.146;2023-12-20T09:49:42;101274.38;;;5.97;100.00
29909;BME280;36247;51.952;6.146;2023-12-20T09:52:09;101274.97;;;5.90;100.00
29909;BME280;36247;51.952;6.146;2023-12-20T09:54:36;101275.09;;;5.93;100.00
29909;BME280;36247;51.952;6.146;2023-12-20T09:57:02;101290.75;;;5.90;100.00
29909;BME280;36247;51.952;6.146;2023-12-20T09:59:29;101288.94;;;5.89;100.00
29909;BME280;36247;51.952;6.146;2023-12-20T10:01:55;101292.59;;;5.92;100.00
29909;BME280;36247;51.952;6.146;2023-12-20T10:04:22;101283.81;;;5.92;100.00
29909;BME280;36247;51.952;6.146;2023-12-20T10:06:48;101286.72;;;5.98;100.00
29909;BME280;36247;51.952;6.146;2023-12-20T10:09:13;101293.72;;;5.97;100.00
29909;BME280;36247;51.952;6.146;2023-12-20T10:11:39;101283.38;;;6.02;100.00
29909;BME280;36247;51.952;6.146;2023-12-20T10:14:06;101275.59;;;6.05;100.00
29909;BME280;36247;51.952;6.146;2023-12-20T10:16:33;101288.88;;;6.08;100.00
29909;BME280;36247;51.952;6.146;2023-12-20T10:19:00;101288.03;;;6.09;100.00
29909;BME280;36247;51.952;6.146;2023-12-20T10:21:30;101284.72;;;6.15;100.00
29909;BME280;36247;51.952;6.146;2023-12-20T10:23:57;101285.78;;;6.18;100.00
29909;BME280;36247;51.952;6.146;2023-12-20T10:26:25;101302.44;;;6.19;100.00
29909;BME280;36247;51.952;6.146;2023-12-20T10:28:53;101296.47;;;6.23;100.00
29909;BME280;36247;51.952;6.146;2023-12-20T10:31:26;101298.22;;;6.23;100.00
29909;BME280;36247;51.952;6.146;2023-12-20T10:33:53;101295.69;;;6.26;100.00
29909;BME280;36247;51.952;6.146;2023-12-20T10:36:18;101303.72;;;6.29;100.00
29909;BME280;36247;51.952;6.146;2023-12-20T10:38:44;101306.34;;;6.29;100.00
29909;BME280;36247;51.952;6.146;2023-12-20T10:41:13;101298.63;;;6.33;100.00
29909;BME280;36247;51.952;6.146;2023-12-20T10:43:42;101289.16;;;6.39;100.00
29909;BME280;36247;51.952;6.146;2023-12-20T10:46:08;101283.00;;;6.38;100.00
29909;BME280;36247;51.952;6.146;2023-12-20T10:48:34;101278.63;;;6.39;100.00
29909;BME280;36247;51.952;6.146;2023-12-20T10:51:01;101290.31;;;6.45;100.00
29909;BME280;36247;51.952;6.146;2023-12-20T10:53:29;101277.03;;;6.42;100.00
29909;BME280;36247;51.952;6.146;2023-12-20T10:56:00;101264.75;;;6.43;100.00
29909;BME280;36247;51.952;6.146;2023-12-20T10:58:33;101256.78;;;6.41;100.00
29909;BME280;36247;51.952;6.146;2023-12-20T11:01:01;101271.75;;;6.42;100.00
29909;BME280;36247;51.952;6.146;2023-12-20T11:03:36;101258.44;;;6.38;100.00
29909;BME280;36247;51.952;6.146;2023-12-20T11:14:27;101257.75;;;6.43;100.00
29909;BME280;36247;51.952;6.146;2023-12-20T11:17:11;101260.44;;;6.45;100.00
29909;BME280;36247;51.952;6.146;2023-12-20T11:20:06;101243.97;;;6.50;100.00
29909;BME280;36247;51.952;6.146;2023-12-20T11:22:33;101255.69;;;6.59;100.00
29909;BME280;36247;51.952;6.146;2023-12-20T11:25:09;101260.16;;;6.61;100.00
29909;BME280;36247;51.952;6.146;2023-12-20T11:27:37;101254.13;;;6.64;100.00
29909;BME280;36247;51.952;6.146;2023-12-20T11:30:06;101239.44;;;6.70;100.00
29909;BME280;36247;51.952;6.146;2023-12-20T11:32:36;101239.34;;;6.67;100.00
29909;BME280;36247;51.952;6.146;2023-12-20T11:37:38;101234.13;;;6.69;100.00
29909;BME280;36247;51.952;6.146;2023-12-20T11:40:11;101229.75;;;6.69;100.00
29909;BME280;36247;51.952;6.146;2023-12-20T11:42:44;101235.19;;;6.74;100.00
29909;BME280;36247;51.952;6.146;2023-12-20T11:45:14;101232.72;;;6.79;100.00
29909;BME280;36247;51.952;6.146;2023-12-20T11:47:50;101214.63;;;6.89;100.00
29909;BME280;36247;51.952;6.146;2023-12-20T11:50:17;101221.13;;;6.99;100.00
29909;BME280;36247;51.952;6.146;2023-12-20T11:52:42;101213.59;;;7.10;100.00
29909;BME280;36247;51.952;6.146;2023-12-20T11:55:08;101221.06;;;7.23;100.00
29909;BME280;36247;51.952;6.146;2023-12-20T11:57:34;101219.84;;;7.12;100.00
29909;BME280;36247;51.952;6.146;2023-12-20T12:00:03;101222.22;;;7.06;100.00
29909;BME280;36247;51.952;6.146;2023-12-20T12:02:37;101221.34;;;7.05;100.00
29909;BME280;36247;51.952;6.146;2023-12-20T12:05:04;101224.81;;;7.04;100.00
29909;BME280;36247;51.952;6.146;2023-12-20T12:07:31;101219.16;;;7.19;100.00
29909;BME280;36247;51.952;6.146;2023-12-20T12:10:01;101221.75;;;7.18;100.00
29909;BME280;36247;51.952;6.146;2023-12-20T12:12:30;101213.75;;;7.15;100.00
29909;BME280;36247;51.952;6.146;2023-12-20T12:14:59;101206.81;;;7.17;100.00
29909;BME280;36247;51.952;6.146;2023-12-20T12:17:24;101215.59;;;7.17;100.00
29909;BME280;36247;51.952;6.146;2023-12-20T12:19:50;101214.81;;;7.20;100.00
29909;BME280;36247;51.952;6.146;2023-12-20T12:22:16;101206.97;;;7.21;100.00
29909;BME280;36247;51.952;6.146;2023-12-20T12:24:49;101206.03;;;7.21;100.00
29909;BME280;36247;51.952;6.146;2023-12-20T12:27:15;101204.38;;;7.23;100.00
29909;BME280;36247;51.952;6.146;2023-12-20T12:30:04;101196.63;;;7.28;100.00
29909;BME280;36247;51.952;6.146;2023-12-20T12:32:31;101193.97;;;7.28;100.00
29909;BME280;36247;51.952;6.146;2023-12-20T12:34:58;101188.81;;;7.31;100.00
29909;BME280;36247;51.952;6.146;2023-12-20T12:37:24;101197.69;;;7.34;100.00
29909;BME280;36247;51.952;6.146;2023-12-20T12:39:49;101182.81;;;7.35;100.00
29909;BME280;36247;51.952;6.146;2023-12-20T12:42:15;101178.41;;;7.35;100.00
29909;BME280;36247;51.952;6.146;2023-12-20T12:44:40;101170.75;;;7.43;100.00
29909;BME280;36247;51.952;6.146;2023-12-20T12:47:06;101172.59;;;7.46;100.00
29909;BME280;36247;51.952;6.146;2023-12-20T12:49:33;101175.22;;;7.46;100.00
29909;BME280;36247;51.952;6.146;2023-12-20T12:51:58;101160.19;;;7.43;100.00
29909;BME280;36247;51.952;6.146;2023-12-20T12:54:24;101157.38;;;7.37;100.00
29909;BME280;36247;51.952;6.146;2023-12-20T12:56:50;101159.03;;;7.33;100.00
29909;BME280;36247;51.952;6.146;2023-12-20T12:59:16;101166.03;;;7.33;100.00